sensor_id;sensor_type;location;lat;lon;timestamp;P1;durP1;ratioP1;P2;durP2;ratioP2
36423;SDS011;22458;45.328;9.514;2023-04-25T00:01:28;1.52;;;0.65;;
36423;SDS011;22458;45.328;9.514;2023-04-25T00:03:54;2.08;;;1.20;;
36423;SDS011;22458;45.328;9.514;2023-04-25T00:06:19;2.08;;;1.27;;
36423;SDS011;22458;45.328;9.514;2023-04-25T00:08:45;1.73;;;1.08;;
36423;SDS011;22458;45.328;9.514;2023-04-25T00:11:11;1.42;;;0.93;;
36423;SDS011;22458;45.328;9.514;2023-04-25T00:13:37;1.00;;;0.80;;
36423;SDS011;22458;45.328;9.514;2023-04-25T00:16:06;1.80;;;1.05;;
36423;SDS011;22458;45.328;9.514;2023-04-25T00:18:33;1.38;;;0.90;;
36423;SDS011;22458;45.328;9.514;2023-04-25T00:20:58;1.70;;;1.30;;
36423;SDS011;22458;45.328;9.514;2023-04-25T00:23:25;1.40;;;1.00;;
36423;SDS011;22458;45.328;9.514;2023-04-25T00:25:51;3.08;;;0.95;;
36423;SDS011;22458;45.328;9.514;2023-04-25T00:28:17;1.65;;;1.00;;
36423;SDS011;22458;45.328;9.514;2023-04-25T00:30:43;1.63;;;1.33;;
36423;SDS011;22458;45.328;9.514;2023-04-25T00:33:08;1.80;;;1.10;;
36423;SDS011;22458;45.328;9.514;2023-04-25T00:35:35;1.73;;;1.20;;
36423;SDS011;22458;45.328;9.514;2023-04-25T00:38:01;2.95;;;1.90;;
36423;SDS011;22458;45.328;9.514;2023-04-25T00:40:27;2.00;;;1.30;;
36423;SDS011;22458;45.328;9.514;2023-04-25T00:42:53;1.58;;;1.10;;
36423;SDS011;22458;45.328;9.514;2023-04-25T00:45:19;1.83;;;1.33;;
36423;SDS011;22458;45.328;9.514;2023-04-25T00:47:45;1.52;;;1.15;;
36423;SDS011;22458;45.328;9.514;2023-04-25T00:50:12;1.75;;;1.05;;
36423;SDS011;22458;45.328;9.514;2023-04-25T00:52:39;2.42;;;1.50;;
36423;SDS011;22458;45.328;9.514;2023-04-25T00:55:08;1.45;;;1.10;;
36423;SDS011;22458;45.328;9.514;2023-04-25T00:57:35;2.35;;;1.10;;
36423;SDS011;22458;45.328;9.514;2023-04-25T01:00:02;1.77;;;1.60;;
36423;SDS011;22458;45.328;9.514;2023-04-25T01:02:30;3.28;;;1.40;;
36423;SDS011;22458;45.328;9.514;2023-04-25T01:04:58;3.35;;;1.15;;
36423;SDS011;22458;45.328;9.514;2023-04-25T01:07:24;3.40;;;1.55;;
36423;SDS011;22458;45.328;9.514;2023-04-25T01:09:53;1.40;;;1.17;;
36423;SDS011;22458;45.328;9.514;2023-04-25T01:12:19;3.33;;;1.55;;
36423;SDS011;22458;45.328;9.514;2023-04-25T01:14:46;4.28;;;1.58;;
36423;SDS011;22458;45.328;9.514;2023-04-25T01:17:12;2.30;;;1.60;;
36423;SDS011;22458;45.328;9.514;2023-04-25T01:19:38;3.78;;;1.30;;
36423;SDS011;22458;45.328;9.514;2023-04-25T01:22:04;1.73;;;1.02;;
36423;SDS011;22458;45.328;9.514;2023-04-25T01:24:33;1.58;;;1.02;;
36423;SDS011;22458;45.328;9.514;2023-04-25T01:29:26;1.52;;;1.23;;
36423;SDS011;22458;45.328;9.514;2023-04-25T01:31:53;1.65;;;1.25;;
36423;SDS011;22458;45.328;9.514;2023-04-25T01:34:20;2.58;;;1.13;;
36423;SDS011;22458;45.328;9.514;2023-04-25T01:36:49;2.22;;;1.35;;
36423;SDS011;22458;45.328;9.514;2023-04-25T01:39:16;1.40;;;1.00;;
36423;SDS011;22458;45.328;9.514;2023-04-25T01:41:43;1.63;;;1.30;;
36423;SDS011;22458;45.328;9.514;2023-04-25T01:44:10;1.20;;;0.90;;
36423;SDS011;22458;45.328;9.514;2023-04-25T01:46:36;1.63;;;1.10;;
36423;SDS011;22458;45.328;9.514;2023-04-25T01:49:03;1.38;;;1.08;;
36423;SDS011;22458;45.328;9.514;2023-04-25T01:51:30;2.78;;;1.17;;
36423;SDS011;22458;45.328;9.514;2023-04-25T01:53:56;2.08;;;0.82;;
36423;SDS011;22458;45.328;9.514;2023-04-25T01:56:23;3.72;;;1.20;;
36423;SDS011;22458;45.328;9.514;2023-04-25T01:58:49;1.58;;;1.10;;
36423;SDS011;22458;45.328;9.514;2023-04-25T02:01:18;1.50;;;1.02;;
36423;SDS011;22458;45.328;9.514;2023-04-25T02:03:55;1.13;;;0.90;;
36423;SDS011;22458;45.328;9.514;2023-04-25T02:06:29;1.77;;;1.20;;
36423;SDS011;22458;45.328;9.514;2023-04-25T02:08:56;2.00;;;1.35;;
36423;SDS011;22458;45.328;9.514;2023-04-25T02:11:22;2.63;;;1.40;;
36423;SDS011;22458;45.328;9.514;2023-04-25T02:14:21;1.60;;;1.10;;
36423;SDS011;22458;45.328;9.514;2023-04-25T02:16:55;2.00;;;1.38;;
36423;SDS011;22458;45.328;9.514;2023-04-25T02:19:22;2.55;;;1.52;;
36423;SDS011;22458;45.328;9.514;2023-04-25T02:21:47;1.85;;;1.45;;
36423;SDS011;22458;45.328;9.514;2023-04-25T02:24:13;2.03;;;1.42;;
36423;SDS011;22458;45.328;9.514;2023-04-25T02:26:39;2.75;;;1.65;;
36423;SDS011;22458;45.328;9.514;2023-04-25T02:29:07;1.55;;;1.25;;
36423;SDS011;22458;45.328;9.514;2023-04-25T02:31:33;3.95;;;1.63;;
36423;SDS011;22458;45.328;9.514;2023-04-25T02:33:59;2.67;;;1.27;;
36423;SDS011;22458;45.328;9.514;2023-04-25T02:36:26;2.25;;;2.03;;
36423;SDS011;22458;45.328;9.514;2023-04-25T02:38:52;2.10;;;1.30;;
36423;SDS011;22458;45.328;9.514;2023-04-25T02:41:19;1.88;;;1.40;;
36423;SDS011;22458;45.328;9.514;2023-04-25T02:43:46;1.67;;;1.50;;
36423;SDS011;22458;45.328;9.514;2023-04-25T02:46:12;2.13;;;1.60;;
36423;SDS011;22458;45.328;9.514;2023-04-25T02:48:38;1.70;;;1.30;;
36423;SDS011;22458;45.328;9.514;2023-04-25T02:51:04;1.83;;;1.30;;
36423;SDS011;22458;45.328;9.514;2023-04-25T02:53:30;2.50;;;1.67;;
36423;SDS011;22458;45.328;9.514;2023-04-25T02:55:56;1.73;;;1.50;;
36423;SDS011;22458;45.328;9.514;2023-04-25T02:58:23;2.20;;;1.75;;
36423;SDS011;22458;45.328;9.514;2023-04-25T03:00:51;2.20;;;1.63;;
36423;SDS011;22458;45.328;9.514;2023-04-25T03:03:17;1.35;;;1.10;;
36423;SDS011;22458;45.328;9.514;2023-04-25T03:05:46;1.88;;;1.38;;
36423;SDS011;22458;45.328;9.514;2023-04-25T03:08:19;1.77;;;1.50;;
36423;SDS011;22458;45.328;9.514;2023-04-25T03:10:45;2.17;;;1.90;;
36423;SDS011;22458;45.328;9.514;2023-04-25T03:13:13;2.00;;;1.50;;
36423;SDS011;22458;45.328;9.514;2023-04-25T03:15:41;3.10;;;1.75;;
36423;SDS011;22458;45.328;9.514;2023-04-25T03:18:08;2.95;;;1.63;;
36423;SDS011;22458;45.328;9.514;2023-04-25T03:20:33;2.40;;;1.73;;
36423;SDS011;22458;45.328;9.514;2023-04-25T03:22:59;3.13;;;1.70;;
36423;SDS011;22458;45.328;9.514;2023-04-25T03:25:26;2.58;;;1.83;;
36423;SDS011;22458;45.328;9.514;2023-04-25T03:27:52;3.60;;;1.90;;
36423;SDS011;22458;45.328;9.514;2023-04-25T03:30:18;2.40;;;1.65;;
36423;SDS011;22458;45.328;9.514;2023-04-25T03:32:47;3.70;;;1.83;;
36423;SDS011;22458;45.328;9.514;2023-04-25T03:35:16;1.92;;;1.65;;
36423;SDS011;22458;45.328;9.514;2023-04-25T03:37:41;3.00;;;1.52;;
36423;SDS011;22458;45.328;9.514;2023-04-25T03:40:12;2.00;;;1.70;;
36423;SDS011;22458;45.328;9.514;2023-04-25T03:43:06;2.55;;;2.10;;
36423;SDS011;22458;45.328;9.514;2023-04-25T03:45:33;3.75;;;1.80;;
36423;SDS011;22458;45.328;9.514;2023-04-25T03:47:59;3.00;;;1.85;;
36423;SDS011;22458;45.328;9.514;2023-04-25T03:50:27;2.45;;;2.10;;
36423;SDS011;22458;45.328;9.514;2023-04-25T03:52:53;2.83;;;2.20;;
36423;SDS011;22458;45.328;9.514;2023-04-25T03:55:19;2.47;;;2.17;;
36423;SDS011;22458;45.328;9.514;2023-04-25T03:57:45;2.55;;;2.35;;
36423;SDS011;22458;45.328;9.514;2023-04-25T04:00:11;2.65;;;1.98;;
36423;SDS011;22458;45.328;9.514;2023-04-25T04:02:41;2.95;;;2.42;;
36423;SDS011;22458;45.328;9.514;2023-04-25T04:05:08;2.30;;;1.92;;
36423;SDS011;22458;45.328;9.514;2023-04-25T04:07:40;2.65;;;2.10;;
36423;SDS011;22458;45.328;9.514;2023-04-25T04:12:37;3.88;;;1.77;;
36423;SDS011;22458;45.328;9.514;2023-04-25T04:15:04;2.42;;;2.13;;
36423;SDS011;22458;45.328;9.514;2023-04-25T04:17:35;3.17;;;2.63;;
36423;SDS011;22458;45.328;9.514;2023-04-25T04:20:01;2.47;;;1.77;;
36423;SDS011;22458;45.328;9.514;2023-04-25T04:22:30;2.30;;;1.90;;
36423;SDS011;22458;45.328;9.514;2023-04-25T04:24:59;2.70;;;2.30;;
36423;SDS011;22458;45.328;9.514;2023-04-25T04:27:47;3.95;;;2.10;;
36423;SDS011;22458;45.328;9.514;2023-04-25T04:30:36;2.33;;;2.13;;
36423;SDS011;22458;45.328;9.514;2023-04-25T04:35:32;3.08;;;2.10;;
36423;SDS011;22458;45.328;9.514;2023-04-25T04:37:59;3.83;;;2.10;;
36423;SDS011;22458;45.328;9.514;2023-04-25T04:40:28;3.42;;;2.30;;
36423;SDS011;22458;45.328;9.514;2023-04-25T04:43:11;4.80;;;2.63;;
36423;SDS011;22458;45.328;9.514;2023-04-25T04:45:54;3.30;;;2.47;;
36423;SDS011;22458;45.328;9.514;2023-04-25T04:48:32;3.17;;;2.35;;
36423;SDS011;22458;45.328;9.514;2023-04-25T04:51:25;2.30;;;2.08;;
36423;SDS011;22458;45.328;9.514;2023-04-25T04:54:07;2.58;;;2.30;;
36423;SDS011;22458;45.328;9.514;2023-04-25T04:56:51;2.65;;;2.20;;
36423;SDS011;22458;45.328;9.514;2023-04-25T04:59:52;3.15;;;2.33;;
36423;SDS011;22458;45.328;9.514;2023-04-25T05:02:38;2.97;;;2.03;;
36423;SDS011;22458;45.328;9.514;2023-04-25T05:05:23;3.55;;;2.15;;
36423;SDS011;22458;45.328;9.514;2023-04-25T05:07:58;2.88;;;2.45;;
36423;SDS011;22458;45.328;9.514;2023-04-25T05:10:59;2.30;;;2.10;;
36423;SDS011;22458;45.328;9.514;2023-04-25T05:13:37;2.95;;;2.00;;
36423;SDS011;22458;45.328;9.514;2023-04-25T05:16:23;4.53;;;2.40;;
36423;SDS011;22458;45.328;9.514;2023-04-25T05:19:15;3.67;;;2.85;;
36423;SDS011;22458;45.328;9.514;2023-04-25T05:21:48;4.70;;;2.80;;
36423;SDS011;22458;45.328;9.514;2023-04-25T05:24:26;3.80;;;2.72;;
36423;SDS011;22458;45.328;9.514;2023-04-25T05:27:18;3.45;;;2.25;;
36423;SDS011;22458;45.328;9.514;2023-04-25T05:29:57;6.32;;;2.35;;
36423;SDS011;22458;45.328;9.514;2023-04-25T05:32:31;3.17;;;2.22;;
36423;SDS011;22458;45.328;9.514;2023-04-25T05:34:57;3.72;;;2.47;;
36423;SDS011;22458;45.328;9.514;2023-04-25T05:37:26;4.00;;;2.40;;
36423;SDS011;22458;45.328;9.514;2023-04-25T05:39:55;3.85;;;2.30;;
36423;SDS011;22458;45.328;9.514;2023-04-25T05:42:50;3.75;;;2.65;;
36423;SDS011;22458;45.328;9.514;2023-04-25T05:45:21;2.67;;;2.22;;
36423;SDS011;22458;45.328;9.514;2023-04-25T05:48:10;2.15;;;1.95;;
36423;SDS011;22458;45.328;9.514;2023-04-25T05:50:55;3.10;;;2.38;;
36423;SDS011;22458;45.328;9.514;2023-04-25T05:53:43;2.85;;;2.50;;
36423;SDS011;22458;45.328;9.514;2023-04-25T05:56:11;4.07;;;2.65;;
36423;SDS011;22458;45.328;9.514;2023-04-25T05:58:39;3.03;;;2.15;;
36423;SDS011;22458;45.328;9.514;2023-04-25T06:01:05;4.88;;;2.50;;
36423;SDS011;22458;45.328;9.514;2023-04-25T06:03:32;2.75;;;2.45;;
36423;SDS011;22458;45.328;9.514;2023-04-25T06:05:58;5.05;;;2.50;;
36423;SDS011;22458;45.328;9.514;2023-04-25T06:08:24;3.20;;;2.30;;
36423;SDS011;22458;45.328;9.514;2023-04-25T06:10:50;2.35;;;2.15;;
36423;SDS011;22458;45.328;9.514;2023-04-25T06:13:16;2.85;;;2.55;;
36423;SDS011;22458;45.328;9.514;2023-04-25T06:15:42;4.13;;;1.95;;
36423;SDS011;22458;45.328;9.514;2023-04-25T06:18:08;3.22;;;2.17;;
36423;SDS011;22458;45.328;9.514;2023-04-25T06:20:33;3.08;;;2.30;;
36423;SDS011;22458;45.328;9.514;2023-04-25T06:23:00;3.00;;;1.55;;
36423;SDS011;22458;45.328;9.514;2023-04-25T06:25:36;2.40;;;1.75;;
36423;SDS011;22458;45.328;9.514;2023-04-25T06:28:01;2.88;;;1.30;;
36423;SDS011;22458;45.328;9.514;2023-04-25T06:30:28;2.38;;;1.55;;
36423;SDS011;22458;45.328;9.514;2023-04-25T06:33:06;1.90;;;1.20;;
36423;SDS011;22458;45.328;9.514;2023-04-25T06:35:36;2.10;;;1.40;;
36423;SDS011;22458;45.328;9.514;2023-04-25T06:38:02;2.58;;;1.40;;
36423;SDS011;22458;45.328;9.514;2023-04-25T06:40:29;1.85;;;1.63;;
36423;SDS011;22458;45.328;9.514;2023-04-25T06:42:55;1.88;;;1.40;;
36423;SDS011;22458;45.328;9.514;2023-04-25T06:45:46;2.22;;;1.38;;
36423;SDS011;22458;45.328;9.514;2023-04-25T06:48:12;1.75;;;1.60;;
36423;SDS011;22458;45.328;9.514;2023-04-25T06:50:38;1.88;;;1.40;;
36423;SDS011;22458;45.328;9.514;2023-04-25T06:53:03;1.90;;;1.60;;
36423;SDS011;22458;45.328;9.514;2023-04-25T06:55:29;1.83;;;1.17;;
36423;SDS011;22458;45.328;9.514;2023-04-25T06:58:06;2.10;;;1.45;;
36423;SDS011;22458;45.328;9.514;2023-04-25T07:00:50;2.55;;;1.70;;
36423;SDS011;22458;45.328;9.514;2023-04-25T07:03:18;25.73;;;3.40;;
36423;SDS011;22458;45.328;9.514;2023-04-25T07:05:45;2.08;;;1.50;;
36423;SDS011;22458;45.328;9.514;2023-04-25T07:08:11;2.85;;;1.70;;
36423;SDS011;22458;45.328;9.514;2023-04-25T07:10:37;2.60;;;1.77;;
36423;SDS011;22458;45.328;9.514;2023-04-25T07:13:03;3.55;;;1.80;;
36423;SDS011;22458;45.328;9.514;2023-04-25T07:15:29;3.35;;;1.83;;
36423;SDS011;22458;45.328;9.514;2023-04-25T07:17:56;4.78;;;1.98;;
36423;SDS011;22458;45.328;9.514;2023-04-25T07:20:22;2.88;;;2.10;;
36423;SDS011;22458;45.328;9.514;2023-04-25T07:22:48;2.53;;;1.80;;
36423;SDS011;22458;45.328;9.514;2023-04-25T07:25:15;2.42;;;1.85;;
36423;SDS011;22458;45.328;9.514;2023-04-25T07:27:41;4.53;;;1.67;;
36423;SDS011;22458;45.328;9.514;2023-04-25T07:30:13;2.75;;;1.73;;
36423;SDS011;22458;45.328;9.514;2023-04-25T07:32:39;2.78;;;1.88;;
36423;SDS011;22458;45.328;9.514;2023-04-25T07:35:05;3.20;;;1.50;;
36423;SDS011;22458;45.328;9.514;2023-04-25T07:37:33;2.38;;;1.73;;
36423;SDS011;22458;45.328;9.514;2023-04-25T07:40:09;1.83;;;1.40;;
36423;SDS011;22458;45.328;9.514;2023-04-25T07:42:38;2.38;;;1.58;;
36423;SDS011;22458;45.328;9.514;2023-04-25T07:45:05;1.38;;;1.27;;
36423;SDS011;22458;45.328;9.514;2023-04-25T07:47:33;2.38;;;1.92;;
36423;SDS011;22458;45.328;9.514;2023-04-25T07:49:58;3.22;;;2.20;;
36423;SDS011;22458;45.328;9.514;2023-04-25T07:52:24;2.10;;;1.60;;
36423;SDS011;22458;45.328;9.514;2023-04-25T07:54:58;2.25;;;1.90;;
36423;SDS011;22458;45.328;9.514;2023-04-25T07:57:33;3.97;;;1.67;;
36423;SDS011;22458;45.328;9.514;2023-04-25T07:59:59;2.97;;;1.70;;
36423;SDS011;22458;45.328;9.514;2023-04-25T08:02:25;2.33;;;1.67;;
36423;SDS011;22458;45.328;9.514;2023-04-25T08:04:54;3.13;;;1.70;;
36423;SDS011;22458;45.328;9.514;2023-04-25T08:07:20;3.20;;;2.35;;
36423;SDS011;22458;45.328;9.514;2023-04-25T08:09:53;2.88;;;1.80;;
36423;SDS011;22458;45.328;9.514;2023-04-25T08:12:28;2.38;;;1.70;;
36423;SDS011;22458;45.328;9.514;2023-04-25T08:14:57;4.00;;;1.83;;
36423;SDS011;22458;45.328;9.514;2023-04-25T08:19:52;6.13;;;1.80;;
36423;SDS011;22458;45.328;9.514;2023-04-25T08:22:24;3.03;;;2.00;;
36423;SDS011;22458;45.328;9.514;2023-04-25T08:24:58;3.50;;;2.22;;
36423;SDS011;22458;45.328;9.514;2023-04-25T08:27:24;2.78;;;1.80;;
36423;SDS011;22458;45.328;9.514;2023-04-25T08:29:50;2.72;;;1.63;;
36423;SDS011;22458;45.328;9.514;2023-04-25T08:32:16;3.13;;;2.15;;
36423;SDS011;22458;45.328;9.514;2023-04-25T08:34:57;3.35;;;2.05;;
36423;SDS011;22458;45.328;9.514;2023-04-25T08:37:22;2.70;;;1.90;;
36423;SDS011;22458;45.328;9.514;2023-04-25T08:39:55;2.75;;;1.70;;
36423;SDS011;22458;45.328;9.514;2023-04-25T08:42:46;4.68;;;2.10;;
36423;SDS011;22458;45.328;9.514;2023-04-25T08:45:14;2.58;;;1.65;;
36423;SDS011;22458;45.328;9.514;2023-04-25T08:47:44;1.83;;;1.48;;
36423;SDS011;22458;45.328;9.514;2023-04-25T08:52:39;2.63;;;1.48;;
36423;SDS011;22458;45.328;9.514;2023-04-25T08:55:11;5.13;;;1.48;;
36423;SDS011;22458;45.328;9.514;2023-04-25T08:57:38;3.08;;;1.40;;
36423;SDS011;22458;45.328;9.514;2023-04-25T09:00:09;2.33;;;1.55;;
36423;SDS011;22458;45.328;9.514;2023-04-25T09:02:38;2.83;;;1.38;;
36423;SDS011;22458;45.328;9.514;2023-04-25T09:05:06;4.88;;;1.75;;
36423;SDS011;22458;45.328;9.514;2023-04-25T09:10:02;2.90;;;1.20;;
36423;SDS011;22458;45.328;9.514;2023-04-25T09:15:05;1.55;;;0.98;;
36423;SDS011;22458;45.328;9.514;2023-04-25T09:17:55;2.38;;;1.10;;
36423;SDS011;22458;45.328;9.514;2023-04-25T09:20:23;2.05;;;0.90;;
36423;SDS011;22458;45.328;9.514;2023-04-25T09:23:00;2.15;;;1.40;;
36423;SDS011;22458;45.328;9.514;2023-04-25T09:25:36;4.43;;;1.40;;
36423;SDS011;22458;45.328;9.514;2023-04-25T09:28:08;2.80;;;1.40;;
36423;SDS011;22458;45.328;9.514;2023-04-25T09:30:34;2.40;;;1.23;;
36423;SDS011;22458;45.328;9.514;2023-04-25T09:33:23;2.65;;;1.40;;
36423;SDS011;22458;45.328;9.514;2023-04-25T09:36:08;2.22;;;1.20;;
36423;SDS011;22458;45.328;9.514;2023-04-25T09:38:54;2.65;;;1.13;;
36423;SDS011;22458;45.328;9.514;2023-04-25T09:41:25;1.58;;;1.10;;
36423;SDS011;22458;45.328;9.514;2023-04-25T09:43:56;2.70;;;1.17;;
36423;SDS011;22458;45.328;9.514;2023-04-25T09:46:32;2.25;;;1.13;;
36423;SDS011;22458;45.328;9.514;2023-04-25T09:49:05;2.17;;;1.50;;
36423;SDS011;22458;45.328;9.514;2023-04-25T09:51:38;2.65;;;1.40;;
36423;SDS011;22458;45.328;9.514;2023-04-25T09:54:06;1.67;;;1.33;;
36423;SDS011;22458;45.328;9.514;2023-04-25T09:56:41;3.00;;;1.17;;
36423;SDS011;22458;45.328;9.514;2023-04-25T09:59:08;1.20;;;0.80;;
36423;SDS011;22458;45.328;9.514;2023-04-25T10:01:36;1.55;;;1.05;;
36423;SDS011;22458;45.328;9.514;2023-04-25T10:04:22;2.83;;;1.20;;
36423;SDS011;22458;45.328;9.514;2023-04-25T10:06:56;4.03;;;1.35;;
36423;SDS011;22458;45.328;9.514;2023-04-25T10:09:25;1.75;;;1.23;;
36423;SDS011;22458;45.328;9.514;2023-04-25T10:11:53;5.18;;;2.10;;
36423;SDS011;22458;45.328;9.514;2023-04-25T10:14:20;3.30;;;1.70;;
36423;SDS011;22458;45.328;9.514;2023-04-25T10:16:47;1.30;;;1.10;;
36423;SDS011;22458;45.328;9.514;2023-04-25T10:19:13;2.45;;;1.40;;
36423;SDS011;22458;45.328;9.514;2023-04-25T10:21:44;3.13;;;1.58;;
36423;SDS011;22458;45.328;9.514;2023-04-25T10:24:15;3.63;;;1.40;;
36423;SDS011;22458;45.328;9.514;2023-04-25T10:26:41;1.73;;;1.23;;
36423;SDS011;22458;45.328;9.514;2023-04-25T10:29:07;4.20;;;1.48;;
36423;SDS011;22458;45.328;9.514;2023-04-25T10:31:38;1.88;;;1.45;;
36423;SDS011;22458;45.328;9.514;2023-04-25T10:34:12;1.90;;;1.35;;
36423;SDS011;22458;45.328;9.514;2023-04-25T10:36:41;3.25;;;1.85;;
36423;SDS011;22458;45.328;9.514;2023-04-25T10:39:07;2.20;;;1.42;;
36423;SDS011;22458;45.328;9.514;2023-04-25T10:42:07;2.50;;;1.40;;
36423;SDS011;22458;45.328;9.514;2023-04-25T10:44:27;4.22;;;1.58;;
36423;SDS011;22458;45.328;9.514;2023-04-25T10:46:57;6.22;;;2.30;;
36423;SDS011;22458;45.328;9.514;2023-04-25T10:49:28;3.03;;;1.58;;
36423;SDS011;22458;45.328;9.514;2023-04-25T10:52:18;1.70;;;1.35;;
36423;SDS011;22458;45.328;9.514;2023-04-25T10:54:54;3.00;;;1.40;;
36423;SDS011;22458;45.328;9.514;2023-04-25T10:59:59;3.60;;;2.30;;
36423;SDS011;22458;45.328;9.514;2023-04-25T11:02:26;2.03;;;1.60;;
36423;SDS011;22458;45.328;9.514;2023-04-25T11:04:53;2.83;;;1.33;;
36423;SDS011;22458;45.328;9.514;2023-04-25T11:07:23;2.30;;;1.63;;
36423;SDS011;22458;45.328;9.514;2023-04-25T11:09:51;2.58;;;1.17;;
36423;SDS011;22458;45.328;9.514;2023-04-25T11:12:18;2.97;;;1.55;;
36423;SDS011;22458;45.328;9.514;2023-04-25T11:14:44;3.53;;;1.77;;
36423;SDS011;22458;45.328;9.514;2023-04-25T11:17:10;3.08;;;1.88;;
36423;SDS011;22458;45.328;9.514;2023-04-25T11:19:36;2.45;;;1.20;;
36423;SDS011;22458;45.328;9.514;2023-04-25T11:22:02;2.85;;;2.17;;
36423;SDS011;22458;45.328;9.514;2023-04-25T11:24:29;3.05;;;1.42;;
36423;SDS011;22458;45.328;9.514;2023-04-25T11:26:57;3.28;;;2.33;;
36423;SDS011;22458;45.328;9.514;2023-04-25T11:29:27;2.47;;;1.30;;
36423;SDS011;22458;45.328;9.514;2023-04-25T11:31:56;3.60;;;1.45;;
36423;SDS011;22458;45.328;9.514;2023-04-25T11:34:26;1.55;;;0.90;;
36423;SDS011;22458;45.328;9.514;2023-04-25T11:36:55;1.88;;;1.10;;
36423;SDS011;22458;45.328;9.514;2023-04-25T11:39:23;3.15;;;1.00;;
36423;SDS011;22458;45.328;9.514;2023-04-25T11:41:50;1.58;;;1.23;;
36423;SDS011;22458;45.328;9.514;2023-04-25T11:44:16;3.83;;;1.85;;
36423;SDS011;22458;45.328;9.514;2023-04-25T11:46:43;7.32;;;4.03;;
36423;SDS011;22458;45.328;9.514;2023-04-25T11:49:09;1.95;;;1.30;;
36423;SDS011;22458;45.328;9.514;2023-04-25T11:51:42;2.55;;;1.30;;
36423;SDS011;22458;45.328;9.514;2023-04-25T11:54:10;1.45;;;0.80;;
36423;SDS011;22458;45.328;9.514;2023-04-25T11:56:36;2.05;;;0.75;;
36423;SDS011;22458;45.328;9.514;2023-04-25T11:59:03;1.13;;;0.70;;
36423;SDS011;22458;45.328;9.514;2023-04-25T12:01:34;3.55;;;1.10;;
36423;SDS011;22458;45.328;9.514;2023-04-25T12:06:38;3.08;;;1.00;;
36423;SDS011;22458;45.328;9.514;2023-04-25T12:09:07;1.38;;;0.80;;
36423;SDS011;22458;45.328;9.514;2023-04-25T12:11:47;1.10;;;0.68;;
36423;SDS011;22458;45.328;9.514;2023-04-25T12:14:27;1.23;;;0.80;;
36423;SDS011;22458;45.328;9.514;2023-04-25T12:16:56;2.08;;;0.88;;
36423;SDS011;22458;45.328;9.514;2023-04-25T12:21:51;3.15;;;1.00;;
36423;SDS011;22458;45.328;9.514;2023-04-25T12:24:18;1.38;;;0.90;;
36423;SDS011;22458;45.328;9.514;2023-04-25T12:29:18;1.98;;;0.70;;
36423;SDS011;22458;45.328;9.514;2023-04-25T12:31:48;2.65;;;0.80;;
36423;SDS011;22458;45.328;9.514;2023-04-25T12:34:15;1.92;;;1.00;;
36423;SDS011;22458;45.328;9.514;2023-04-25T12:36:41;1.42;;;0.68;;
36423;SDS011;22458;45.328;9.514;2023-04-25T12:39:06;0.88;;;0.57;;
36423;SDS011;22458;45.328;9.514;2023-04-25T12:41:33;1.00;;;0.65;;
36423;SDS011;22458;45.328;9.514;2023-04-25T12:43:59;2.15;;;1.00;;
36423;SDS011;22458;45.328;9.514;2023-04-25T12:46:25;1.92;;;0.93;;
36423;SDS011;22458;45.328;9.514;2023-04-25T12:48:50;1.60;;;0.70;;
36423;SDS011;22458;45.328;9.514;2023-04-25T12:51:16;1.60;;;0.50;;
36423;SDS011;22458;45.328;9.514;2023-04-25T12:53:42;0.95;;;0.50;;
36423;SDS011;22458;45.328;9.514;2023-04-25T12:56:08;2.63;;;0.63;;
36423;SDS011;22458;45.328;9.514;2023-04-25T12:58:33;1.02;;;0.70;;
36423;SDS011;22458;45.328;9.514;2023-04-25T13:00:59;2.15;;;1.45;;
36423;SDS011;22458;45.328;9.514;2023-04-25T13:03:25;3.20;;;2.33;;
36423;SDS011;22458;45.328;9.514;2023-04-25T13:05:51;3.95;;;2.63;;
36423;SDS011;22458;45.328;9.514;2023-04-25T13:08:20;1.38;;;0.73;;
36423;SDS011;22458;45.328;9.514;2023-04-25T13:10:49;2.10;;;0.95;;
36423;SDS011;22458;45.328;9.514;2023-04-25T13:13:15;1.40;;;0.70;;
36423;SDS011;22458;45.328;9.514;2023-04-25T13:15:41;2.80;;;0.70;;
36423;SDS011;22458;45.328;9.514;2023-04-25T13:18:07;3.00;;;0.80;;
36423;SDS011;22458;45.328;9.514;2023-04-25T13:20:33;1.00;;;0.80;;
36423;SDS011;22458;45.328;9.514;2023-04-25T13:22:59;1.55;;;0.60;;
36423;SDS011;22458;45.328;9.514;2023-04-25T13:25:27;1.05;;;0.30;;
36423;SDS011;22458;45.328;9.514;2023-04-25T13:27:53;1.40;;;1.08;;
36423;SDS011;22458;45.328;9.514;2023-04-25T13:30:18;1.50;;;0.50;;
36423;SDS011;22458;45.328;9.514;2023-04-25T13:32:44;2.45;;;0.68;;
36423;SDS011;22458;45.328;9.514;2023-04-25T13:35:11;6.90;;;2.88;;
36423;SDS011;22458;45.328;9.514;2023-04-25T13:37:38;2.90;;;0.90;;
36423;SDS011;22458;45.328;9.514;2023-04-25T13:40:05;2.92;;;0.80;;
36423;SDS011;22458;45.328;9.514;2023-04-25T13:42:36;6.55;;;0.50;;
36423;SDS011;22458;45.328;9.514;2023-04-25T13:45:02;4.68;;;0.80;;
36423;SDS011;22458;45.328;9.514;2023-04-25T13:47:29;2.60;;;0.60;;
36423;SDS011;22458;45.328;9.514;2023-04-25T13:49:55;5.38;;;0.90;;
36423;SDS011;22458;45.328;9.514;2023-04-25T13:52:21;2.90;;;0.40;;
36423;SDS011;22458;45.328;9.514;2023-04-25T13:54:49;6.18;;;0.90;;
36423;SDS011;22458;45.328;9.514;2023-04-25T13:57:16;1.40;;;0.50;;
36423;SDS011;22458;45.328;9.514;2023-04-25T13:59:42;2.30;;;0.50;;
36423;SDS011;22458;45.328;9.514;2023-04-25T14:02:08;1.75;;;0.43;;
36423;SDS011;22458;45.328;9.514;2023-04-25T14:04:34;10.40;;;0.60;;
36423;SDS011;22458;45.328;9.514;2023-04-25T14:07:00;1.67;;;0.60;;
36423;SDS011;22458;45.328;9.514;2023-04-25T14:09:27;0.88;;;0.50;;
36423;SDS011;22458;45.328;9.514;2023-04-25T14:11:53;0.60;;;0.40;;
36423;SDS011;22458;45.328;9.514;2023-04-25T14:14:20;0.80;;;0.52;;
36423;SDS011;22458;45.328;9.514;2023-04-25T14:16:47;1.33;;;0.80;;
36423;SDS011;22458;45.328;9.514;2023-04-25T14:19:14;0.80;;;0.43;;
36423;SDS011;22458;45.328;9.514;2023-04-25T14:21:43;1.63;;;0.38;;
36423;SDS011;22458;45.328;9.514;2023-04-25T14:24:09;0.70;;;0.30;;
36423;SDS011;22458;45.328;9.514;2023-04-25T14:26:38;2.10;;;0.60;;
36423;SDS011;22458;45.328;9.514;2023-04-25T14:29:06;1.00;;;0.40;;
36423;SDS011;22458;45.328;9.514;2023-04-25T14:31:32;0.38;;;0.20;;
36423;SDS011;22458;45.328;9.514;2023-04-25T14:33:58;1.85;;;0.30;;
36423;SDS011;22458;45.328;9.514;2023-04-25T14:36:24;0.57;;;0.20;;
36423;SDS011;22458;45.328;9.514;2023-04-25T14:38:51;0.70;;;0.30;;
36423;SDS011;22458;45.328;9.514;2023-04-25T14:41:18;0.82;;;0.32;;
36423;SDS011;22458;45.328;9.514;2023-04-25T14:43:43;0.50;;;0.20;;
36423;SDS011;22458;45.328;9.514;2023-04-25T14:46:10;0.73;;;0.35;;
36423;SDS011;22458;45.328;9.514;2023-04-25T14:48:36;0.93;;;0.30;;
36423;SDS011;22458;45.328;9.514;2023-04-25T14:51:02;0.30;;;0.20;;
36423;SDS011;22458;45.328;9.514;2023-04-25T14:53:28;0.50;;;0.20;;
36423;SDS011;22458;45.328;9.514;2023-04-25T14:55:53;1.23;;;0.40;;
36423;SDS011;22458;45.328;9.514;2023-04-25T14:58:19;0.60;;;0.20;;
36423;SDS011;22458;45.328;9.514;2023-04-25T15:00:45;0.60;;;0.40;;
36423;SDS011;22458;45.328;9.514;2023-04-25T15:03:12;0.60;;;0.28;;
36423;SDS011;22458;45.328;9.514;2023-04-25T15:05:38;1.27;;;0.25;;
36423;SDS011;22458;45.328;9.514;2023-04-25T15:08:05;0.50;;;0.30;;
36423;SDS011;22458;45.328;9.514;2023-04-25T15:10:32;5.10;;;3.17;;
36423;SDS011;22458;45.328;9.514;2023-04-25T15:12:58;0.45;;;0.20;;
36423;SDS011;22458;45.328;9.514;2023-04-25T15:15:25;0.95;;;0.43;;
36423;SDS011;22458;45.328;9.514;2023-04-25T15:17:51;0.20;;;0.10;;
36423;SDS011;22458;45.328;9.514;2023-04-25T15:20:18;1.25;;;0.20;;
36423;SDS011;22458;45.328;9.514;2023-04-25T15:22:44;1.77;;;0.20;;
36423;SDS011;22458;45.328;9.514;2023-04-25T15:25:11;0.80;;;0.40;;
36423;SDS011;22458;45.328;9.514;2023-04-25T15:27:37;1.25;;;0.30;;
36423;SDS011;22458;45.328;9.514;2023-04-25T15:30:07;0.60;;;0.28;;